sensor_id;sensor_type;location;lat;lon;timestamp;pressure;altitude;pressure_sealevel;temperature;humidity
58092;BME280;43896;48.178;11.578;2023-03-13T00:01:16;95487.91;;;8.36;64.44
58092;BME280;43896;48.178;11.578;2023-03-13T00:03:42;95568.31;;;8.80;64.08
58092;BME280;43896;48.178;11.578;2023-03-13T00:06:08;95570.50;;;8.85;64.24
58092;BME280;43896;48.178;11.578;2023-03-13T00:08:33;95562.63;;;8.85;64.09
58092;BME280;43896;48.178;11.578;2023-03-13T00:11:03;95506.19;;;8.46;64.00
58092;BME280;43896;48.178;11.578;2023-03-13T00:13:28;95543.56;;;8.74;63.80
58092;BME280;43896;48.178;11.578;2023-03-13T00:16:05;95499.84;;;8.39;63.92
58092;BME280;43896;48.178;11.578;2023-03-13T00:18:31;95547.25;;;8.63;64.50
58092;BME280;43896;48.178;11.578;2023-03-13T00:20:58;95467.66;;;8.20;63.67
58092;BME280;43896;48.178;11.578;2023-03-13T00:23:24;95442.34;;;8.11;63.47
58092;BME280;43896;48.178;11.578;2023-03-13T00:25:58;95497.22;;;8.39;64.02
58092;BME280;43896;48.178;11.578;2023-03-13T00:28:23;95480.34;;;8.33;63.37
58092;BME280;43896;48.178;11.578;2023-03-13T00:30:48;95535.63;;;8.66;63.68
58092;BME280;43896;48.178;11.578;2023-03-13T00:33:14;95494.38;;;8.24;64.04
58092;BME280;43896;48.178;11.578;2023-03-13T00:35:39;95482.00;;;8.16;64.31
58092;BME280;43896;48.178;11.578;2023-03-13T00:38:04;95514.72;;;8.48;63.39
58092;BME280;43896;48.178;11.578;2023-03-13T00:40:30;95456.44;;;8.10;63.69
58092;BME280;43896;48.178;11.578;2023-03-13T00:42:55;95509.56;;;8.20;64.33
58092;BME280;43896;48.178;11.578;2023-03-13T00:45:20;95406.50;;;7.67;64.16
58092;BME280;43896;48.178;11.578;2023-03-13T00:47:46;95509.78;;;8.45;64.09
58092;BME280;43896;48.178;11.578;2023-03-13T00:50:11;95433.16;;;8.07;63.54
58092;BME280;43896;48.178;11.578;2023-03-13T00:52:36;95461.06;;;8.16;63.58
58092;BME280;43896;48.178;11.578;2023-03-13T00:55:02;95496.22;;;8.32;63.84
58092;BME280;43896;48.178;11.578;2023-03-13T00:57:28;95419.94;;;7.91;63.32
58092;BME280;43896;48.178;11.578;2023-03-13T00:59:53;95407.47;;;7.84;63.04
58092;BME280;43896;48.178;11.578;2023-03-13T01:02:19;95475.56;;;8.29;63.21
58092;BME280;43896;48.178;11.578;2023-03-13T01:04:44;95488.19;;;8.33;62.85
58092;BME280;43896;48.178;11.578;2023-03-13T01:07:09;95466.34;;;8.24;63.06
58092;BME280;43896;48.178;11.578;2023-03-13T01:09:35;95453.94;;;8.26;62.54
58092;BME280;43896;48.178;11.578;2023-03-13T01:12:00;95416.34;;;7.92;63.36
58092;BME280;43896;48.178;11.578;2023-03-13T01:14:25;95417.28;;;7.82;63.43
58092;BME280;43896;48.178;11.578;2023-03-13T01:16:51;95442.91;;;7.97;64.14
58092;BME280;43896;48.178;11.578;2023-03-13T01:19:16;95396.13;;;7.58;64.21
58092;BME280;43896;48.178;11.578;2023-03-13T01:21:43;95367.09;;;7.51;63.71
58092;BME280;43896;48.178;11.578;2023-03-13T01:24:09;95410.09;;;7.66;63.52
58092;BME280;43896;48.178;11.578;2023-03-13T01:26:34;95485.47;;;8.17;64.60
58092;BME280;43896;48.178;11.578;2023-03-13T01:29:00;95456.16;;;8.13;63.42
58092;BME280;43896;48.178;11.578;2023-03-13T01:31:33;95380.19;;;7.69;63.34
58092;BME280;43896;48.178;11.578;2023-03-13T01:34:02;95417.31;;;7.91;64.41
58092;BME280;43896;48.178;11.578;2023-03-13T01:36:28;95396.34;;;7.82;63.38
58092;BME280;43896;48.178;11.578;2023-03-13T01:38:56;95423.28;;;8.01;63.04
58092;BME280;43896;48.178;11.578;2023-03-13T01:41:22;95461.78;;;8.26;63.47
58092;BME280;43896;48.178;11.578;2023-03-13T01:43:49;95399.47;;;7.86;63.72
58092;BME280;43896;48.178;11.578;2023-03-13T01:46:18;95464.03;;;8.21;63.58
58092;BME280;43896;48.178;11.578;2023-03-13T01:49:14;95464.38;;;8.18;63.74
58092;BME280;43896;48.178;11.578;2023-03-13T01:51:47;95392.97;;;7.72;63.86
58092;BME280;43896;48.178;11.578;2023-03-13T01:54:44;95461.69;;;8.10;63.57
58092;BME280;43896;48.178;11.578;2023-03-13T01:57:30;95385.72;;;7.66;64.56
58092;BME280;43896;48.178;11.578;2023-03-13T02:00:12;95349.19;;;7.38;64.51
58092;BME280;43896;48.178;11.578;2023-03-13T02:02:44;95448.81;;;7.99;63.74
58092;BME280;43896;48.178;11.578;2023-03-13T02:05:11;95420.88;;;7.63;65.37
58092;BME280;43896;48.178;11.578;2023-03-13T02:07:45;95413.75;;;7.56;64.67
58092;BME280;43896;48.178;11.578;2023-03-13T02:10:12;95427.00;;;7.72;65.16
58092;BME280;43896;48.178;11.578;2023-03-13T02:12:39;95345.38;;;7.14;65.04
58092;BME280;43896;48.178;11.578;2023-03-13T02:15:12;95396.00;;;7.41;65.55
58092;BME280;43896;48.178;11.578;2023-03-13T02:17:39;95438.66;;;7.60;66.21
58092;BME280;43896;48.178;11.578;2023-03-13T02:20:06;95396.25;;;7.20;66.39
58092;BME280;43896;48.178;11.578;2023-03-13T02:22:39;95437.75;;;7.51;66.47
58092;BME280;43896;48.178;11.578;2023-03-13T02:28:35;95360.59;;;7.01;66.33
58092;BME280;43896;48.178;11.578;2023-03-13T02:30:35;95363.69;;;7.14;65.51
58092;BME280;43896;48.178;11.578;2023-03-13T02:33:01;95393.53;;;6.94;67.39
58092;BME280;43896;48.178;11.578;2023-03-13T02:35:28;95415.50;;;7.29;66.31
58092;BME280;43896;48.178;11.578;2023-03-13T02:37:58;95427.81;;;7.37;66.74
58092;BME280;43896;48.178;11.578;2023-03-13T02:40:29;95386.16;;;7.25;66.85
58092;BME280;43896;48.178;11.578;2023-03-13T02:42:55;95372.50;;;7.13;66.41
58092;BME280;43896;48.178;11.578;2023-03-13T02:45:22;95376.19;;;7.21;65.67
58092;BME280;43896;48.178;11.578;2023-03-13T02:47:47;95429.09;;;7.50;66.07
58092;BME280;43896;48.178;11.578;2023-03-13T02:50:13;95451.38;;;7.55;65.84
58092;BME280;43896;48.178;11.578;2023-03-13T02:52:45;95401.91;;;6.98;66.74
58092;BME280;43896;48.178;11.578;2023-03-13T02:55:16;95424.69;;;7.33;65.95
58092;BME280;43896;48.178;11.578;2023-03-13T02:57:46;95392.88;;;7.10;65.91
58092;BME280;43896;48.178;11.578;2023-03-13T03:00:12;95357.78;;;6.94;65.81
58092;BME280;43896;48.178;11.578;2023-03-13T03:02:38;95431.84;;;7.49;65.77
58092;BME280;43896;48.178;11.578;2023-03-13T03:05:04;95347.22;;;6.86;65.20
58092;BME280;43896;48.178;11.578;2023-03-13T03:07:30;95425.72;;;7.40;65.23
58092;BME280;43896;48.178;11.578;2023-03-13T03:09:55;95383.13;;;7.12;65.40
58092;BME280;43896;48.178;11.578;2023-03-13T03:12:21;95410.94;;;7.31;64.90
58092;BME280;43896;48.178;11.578;2023-03-13T03:14:46;95331.34;;;6.70;65.27
58092;BME280;43896;48.178;11.578;2023-03-13T03:17:11;95360.28;;;6.86;65.54
58092;BME280;43896;48.178;11.578;2023-03-13T03:19:37;95451.22;;;7.38;65.23
58092;BME280;43896;48.178;11.578;2023-03-13T03:22:02;95449.56;;;7.37;64.93
58092;BME280;43896;48.178;11.578;2023-03-13T03:24:27;95380.75;;;6.91;64.96
58092;BME280;43896;48.178;11.578;2023-03-13T03:26:53;95371.53;;;6.69;65.24
58092;BME280;43896;48.178;11.578;2023-03-13T03:29:18;95369.91;;;6.86;64.53
58092;BME280;43896;48.178;11.578;2023-03-13T03:31:44;95456.44;;;7.38;64.78
58092;BME280;43896;48.178;11.578;2023-03-13T03:34:09;95369.91;;;6.86;64.04
58092;BME280;43896;48.178;11.578;2023-03-13T03:36:34;95444.97;;;7.21;65.47
58092;BME280;43896;48.178;11.578;2023-03-13T03:38:59;95430.44;;;7.19;64.56
58092;BME280;43896;48.178;11.578;2023-03-13T03:41:25;95420.25;;;7.16;64.82
58092;BME280;43896;48.178;11.578;2023-03-13T03:43:50;95352.03;;;6.63;64.94
58092;BME280;43896;48.178;11.578;2023-03-13T03:46:16;95434.53;;;7.21;64.91
58092;BME280;43896;48.178;11.578;2023-03-13T03:48:41;95368.38;;;6.65;65.12
58092;BME280;43896;48.178;11.578;2023-03-13T03:51:07;95366.84;;;6.72;64.61
58092;BME280;43896;48.178;11.578;2023-03-13T03:53:33;95429.25;;;7.31;65.04
58092;BME280;43896;48.178;11.578;2023-03-13T03:55:58;95394.00;;;6.89;64.67
58092;BME280;43896;48.178;11.578;2023-03-13T03:58:24;95396.03;;;6.86;64.93
58092;BME280;43896;48.178;11.578;2023-03-13T04:00:49;95371.41;;;6.88;65.10
58092;BME280;43896;48.178;11.578;2023-03-13T04:03:15;95427.25;;;7.15;64.27
58092;BME280;43896;48.178;11.578;2023-03-13T04:05:41;95358.78;;;6.84;64.55
58092;BME280;43896;48.178;11.578;2023-03-13T04:08:08;95418.41;;;7.26;64.80
58092;BME280;43896;48.178;11.578;2023-03-13T04:10:34;95346.19;;;6.79;64.09
58092;BME280;43896;48.178;11.578;2023-03-13T04:12:59;95393.06;;;7.08;64.32
58092;BME280;43896;48.178;11.578;2023-03-13T04:15:25;95353.84;;;6.81;64.04
58092;BME280;43896;48.178;11.578;2023-03-13T04:17:50;95349.22;;;6.74;64.75
58092;BME280;43896;48.178;11.578;2023-03-13T04:20:15;95396.53;;;6.99;64.55
58092;BME280;43896;48.178;11.578;2023-03-13T04:22:41;95370.91;;;7.03;64.30
58092;BME280;43896;48.178;11.578;2023-03-13T04:25:07;95362.84;;;6.96;64.60
58092;BME280;43896;48.178;11.578;2023-03-13T04:27:32;95334.31;;;6.85;63.91
58092;BME280;43896;48.178;11.578;2023-03-13T04:29:58;95334.69;;;6.90;64.23
58092;BME280;43896;48.178;11.578;2023-03-13T04:32:24;95298.66;;;6.66;64.57
58092;BME280;43896;48.178;11.578;2023-03-13T04:34:49;95299.09;;;6.61;64.72
58092;BME280;43896;48.178;11.578;2023-03-13T04:37:15;95366.28;;;7.14;63.97
58092;BME280;43896;48.178;11.578;2023-03-13T04:39:40;95342.25;;;6.93;63.60
58092;BME280;43896;48.178;11.578;2023-03-13T04:42:06;95287.38;;;6.65;63.16
58092;BME280;43896;48.178;11.578;2023-03-13T04:44:31;95322.97;;;7.12;63.13
58092;BME280;43896;48.178;11.578;2023-03-13T04:46:57;95340.06;;;7.24;63.30
58092;BME280;43896;48.178;11.578;2023-03-13T04:49:22;95283.06;;;6.92;63.34
58092;BME280;43896;48.178;11.578;2023-03-13T04:51:48;95257.53;;;6.86;63.07
58092;BME280;43896;48.178;11.578;2023-03-13T04:54:13;95316.97;;;7.20;62.90
58092;BME280;43896;48.178;11.578;2023-03-13T04:56:38;95326.16;;;7.42;62.99
58092;BME280;43896;48.178;11.578;2023-03-13T04:59:04;95269.28;;;7.00;62.52
58092;BME280;43896;48.178;11.578;2023-03-13T05:01:30;95241.19;;;6.66;63.00
58092;BME280;43896;48.178;11.578;2023-03-13T05:03:55;95260.22;;;6.94;62.41
58092;BME280;43896;48.178;11.578;2023-03-13T05:06:21;95297.06;;;7.19;62.40
58092;BME280;43896;48.178;11.578;2023-03-13T05:08:46;95269.41;;;6.98;62.40
58092;BME280;43896;48.178;11.578;2023-03-13T05:11:11;95260.97;;;7.04;62.15
58092;BME280;43896;48.178;11.578;2023-03-13T05:13:37;95256.25;;;7.08;62.30
58092;BME280;43896;48.178;11.578;2023-03-13T05:16:02;95314.41;;;7.64;61.89
58092;BME280;43896;48.178;11.578;2023-03-13T05:18:28;95319.47;;;7.65;61.00
58092;BME280;43896;48.178;11.578;2023-03-13T05:20:53;95244.19;;;7.15;61.23
58092;BME280;43896;48.178;11.578;2023-03-13T05:23:19;95269.53;;;7.32;61.91
58092;BME280;43896;48.178;11.578;2023-03-13T05:25:44;95301.81;;;7.67;61.33
58092;BME280;43896;48.178;11.578;2023-03-13T05:28:10;95282.47;;;7.34;62.35
58092;BME280;43896;48.178;11.578;2023-03-13T05:30:35;95261.53;;;7.34;61.83
58092;BME280;43896;48.178;11.578;2023-03-13T05:33:01;95289.56;;;7.68;61.21
58092;BME280;43896;48.178;11.578;2023-03-13T05:35:26;95281.19;;;7.64;60.43
58092;BME280;43896;48.178;11.578;2023-03-13T05:37:52;95275.00;;;7.65;61.08
58092;BME280;43896;48.178;11.578;2023-03-13T05:40:17;95241.84;;;7.48;60.75
58092;BME280;43896;48.178;11.578;2023-03-13T05:42:44;95180.56;;;7.06;60.57
58092;BME280;43896;48.178;11.578;2023-03-13T05:45:10;95255.16;;;7.63;60.53
58092;BME280;43896;48.178;11.578;2023-03-13T05:47:36;95206.19;;;7.21;60.54
58092;BME280;43896;48.178;11.578;2023-03-13T05:50:03;95210.28;;;7.49;60.95
58092;BME280;43896;48.178;11.578;2023-03-13T05:52:29;95272.59;;;7.80;60.63
58092;BME280;43896;48.178;11.578;2023-03-13T05:54:57;95239.66;;;7.69;59.83
58092;BME280;43896;48.178;11.578;2023-03-13T05:57:22;95265.13;;;7.85;60.31
58092;BME280;43896;48.178;11.578;2023-03-13T05:59:47;95269.59;;;7.67;61.45
58092;BME280;43896;48.178;11.578;2023-03-13T06:02:13;95261.53;;;7.86;60.16
58092;BME280;43896;48.178;11.578;2023-03-13T06:04:38;95247.38;;;7.71;59.66
58092;BME280;43896;48.178;11.578;2023-03-13T06:07:03;95262.53;;;7.94;60.22
58092;BME280;43896;48.178;11.578;2023-03-13T06:09:29;95248.75;;;7.83;59.80
58092;BME280;43896;48.178;11.578;2023-03-13T06:11:55;95230.50;;;7.65;59.46
58092;BME280;43896;48.178;11.578;2023-03-13T06:14:20;95248.94;;;7.90;59.60
58092;BME280;43896;48.178;11.578;2023-03-13T06:16:46;95251.66;;;8.06;59.50
58092;BME280;43896;48.178;11.578;2023-03-13T06:19:11;95228.16;;;7.88;60.01
58092;BME280;43896;48.178;11.578;2023-03-13T06:21:37;95237.72;;;8.06;59.38
58092;BME280;43896;48.178;11.578;2023-03-13T06:24:03;95232.09;;;8.27;59.00
58092;BME280;43896;48.178;11.578;2023-03-13T06:26:28;95200.91;;;8.07;59.38
58092;BME280;43896;48.178;11.578;2023-03-13T06:28:54;95222.59;;;8.26;58.54
58092;BME280;43896;48.178;11.578;2023-03-13T06:31:19;95230.22;;;8.11;59.86
58092;BME280;43896;48.178;11.578;2023-03-13T06:33:45;95174.72;;;8.07;58.45
58092;BME280;43896;48.178;11.578;2023-03-13T06:36:13;95244.81;;;8.56;58.14
58092;BME280;43896;48.178;11.578;2023-03-13T06:38:38;95203.63;;;8.32;57.79
58092;BME280;43896;48.178;11.578;2023-03-13T06:41:04;95233.69;;;8.71;57.62
58092;BME280;43896;48.178;11.578;2023-03-13T06:43:29;95238.28;;;8.85;56.67
58092;BME280;43896;48.178;11.578;2023-03-13T06:45:55;95214.03;;;8.67;57.04
58092;BME280;43896;48.178;11.578;2023-03-13T06:48:20;95230.78;;;8.82;56.80
58092;BME280;43896;48.178;11.578;2023-03-13T06:50:47;95235.84;;;8.83;56.85
58092;BME280;43896;48.178;11.578;2023-03-13T06:53:18;95230.44;;;8.93;57.03
58092;BME280;43896;48.178;11.578;2023-03-13T06:55:44;95232.44;;;8.99;56.57
58092;BME280;43896;48.178;11.578;2023-03-13T06:58:09;95223.06;;;8.97;56.81
58092;BME280;43896;48.178;11.578;2023-03-13T07:00:35;95218.81;;;8.88;55.91
58092;BME280;43896;48.178;11.578;2023-03-13T07:03:00;95208.97;;;8.98;56.17
58092;BME280;43896;48.178;11.578;2023-03-13T07:05:25;95222.25;;;9.05;55.80
58092;BME280;43896;48.178;11.578;2023-03-13T07:07:51;95232.09;;;9.11;56.28
58092;BME280;43896;48.178;11.578;2023-03-13T07:10:16;95237.34;;;9.19;55.62
58092;BME280;43896;48.178;11.578;2023-03-13T07:12:41;95208.97;;;8.90;55.69
58092;BME280;43896;48.178;11.578;2023-03-13T07:15:07;95236.53;;;9.27;55.21
58092;BME280;43896;48.178;11.578;2023-03-13T07:17:34;95230.78;;;9.31;55.13
58092;BME280;43896;48.178;11.578;2023-03-13T07:19:59;95232.59;;;9.31;55.17
58092;BME280;43896;48.178;11.578;2023-03-13T07:22:24;95217.50;;;9.25;55.15
58092;BME280;43896;48.178;11.578;2023-03-13T07:24:49;95216.69;;;9.24;55.07
58092;BME280;43896;48.178;11.578;2023-03-13T07:27:16;95200.13;;;9.32;53.92
58092;BME280;43896;48.178;11.578;2023-03-13T07:29:41;95229.59;;;9.50;54.42
58092;BME280;43896;48.178;11.578;2023-03-13T07:32:06;95220.59;;;9.45;54.14
58092;BME280;43896;48.178;11.578;2023-03-13T07:34:32;95235.03;;;9.41;54.70
58092;BME280;43896;48.178;11.578;2023-03-13T07:36:57;95191.41;;;9.23;54.29
58092;BME280;43896;48.178;11.578;2023-03-13T07:39:23;95223.69;;;9.56;53.13
58092;BME280;43896;48.178;11.578;2023-03-13T07:41:48;95206.97;;;9.41;53.05
58092;BME280;43896;48.178;11.578;2023-03-13T07:44:14;95207.13;;;9.48;53.19
58092;BME280;43896;48.178;11.578;2023-03-13T07:46:39;95228.44;;;9.61;53.15
58092;BME280;43896;48.178;11.578;2023-03-13T07:49:04;95214.31;;;9.62;54.99
58092;BME280;43896;48.178;11.578;2023-03-13T07:51:29;95166.81;;;9.32;53.94
58092;BME280;43896;48.178;11.578;2023-03-13T07:53:55;95176.63;;;9.38;54.66
58092;BME280;43896;48.178;11.578;2023-03-13T07:56:22;95204.78;;;9.69;54.82
58092;BME280;43896;48.178;11.578;2023-03-13T07:58:48;95213.44;;;9.86;53.74
58092;BME280;43896;48.178;11.578;2023-03-13T08:01:18;95216.66;;;10.05;53.71
58092;BME280;43896;48.178;11.578;2023-03-13T08:03:44;95172.59;;;9.84;53.33
58092;BME280;43896;48.178;11.578;2023-03-13T08:06:12;95211.38;;;10.13;53.95
58092;BME280;43896;48.178;11.578;2023-03-13T08:08:38;95188.06;;;10.10;52.84
58092;BME280;43896;48.178;11.578;2023-03-13T08:11:17;95176.75;;;10.09;52.85
58092;BME280;43896;48.178;11.578;2023-03-13T08:13:42;95203.91;;;10.33;52.72
58092;BME280;43896;48.178;11.578;2023-03-13T08:16:14;95166.09;;;10.03;52.41
58092;BME280;43896;48.178;11.578;2023-03-13T08:18:42;95174.13;;;10.09;52.64
58092;BME280;43896;48.178;11.578;2023-03-13T08:21:10;95204.22;;;10.38;52.63
58092;BME280;43896;48.178;11.578;2023-03-13T08:23:36;95204.94;;;10.55;51.54
58092;BME280;43896;48.178;11.578;2023-03-13T08:26:06;95215.91;;;10.67;51.64
58092;BME280;43896;48.178;11.578;2023-03-13T08:28:33;95211.56;;;10.74;50.71
58092;BME280;43896;48.178;11.578;2023-03-13T08:30:58;95130.25;;;10.18;50.74
58092;BME280;43896;48.178;11.578;2023-03-13T08:33:23;95194.22;;;10.65;49.61
58092;BME280;43896;48.178;11.578;2023-03-13T08:35:49;95202.56;;;10.68;49.99
58092;BME280;43896;48.178;11.578;2023-03-13T08:38:14;95189.03;;;10.48;51.40
58092;BME280;43896;48.178;11.578;2023-03-13T08:40:40;95191.75;;;10.40;52.00
58092;BME280;43896;48.178;11.578;2023-03-13T08:43:05;95192.59;;;10.32;52.67
58092;BME280;43896;48.178;11.578;2023-03-13T08:45:30;95174.94;;;10.49;52.28
58092;BME280;43896;48.178;11.578;2023-03-13T08:47:55;95191.13;;;10.61;52.31
58092;BME280;43896;48.178;11.578;2023-03-13T08:50:21;95186.88;;;11.21;51.86
58092;BME280;43896;48.178;11.578;2023-03-13T08:52:46;95200.91;;;11.52;51.76
58092;BME280;43896;48.178;11.578;2023-03-13T08:55:11;95177.41;;;11.50;50.87
58092;BME280;43896;48.178;11.578;2023-03-13T08:57:37;95214.91;;;11.67;51.10
58092;BME280;43896;48.178;11.578;2023-03-13T09:00:03;95204.94;;;11.77;51.29
58092;BME280;43896;48.178;11.578;2023-03-13T09:02:30;95204.50;;;11.89;50.75
58092;BME280;43896;48.178;11.578;2023-03-13T09:04:55;95205.69;;;12.16;50.75
58092;BME280;43896;48.178;11.578;2023-03-13T09:07:21;95192.28;;;12.32;49.50
58092;BME280;43896;48.178;11.578;2023-03-13T09:09:46;95188.66;;;12.70;49.78
58092;BME280;43896;48.178;11.578;2023-03-13T09:12:11;95185.28;;;12.98;49.23
58092;BME280;43896;48.178;11.578;2023-03-13T09:14:37;95166.84;;;13.04;49.02
58092;BME280;43896;48.178;11.578;2023-03-13T09:17:02;95171.03;;;13.13;48.32
58092;BME280;43896;48.178;11.578;2023-03-13T09:19:28;95168.41;;;13.20;48.49
58092;BME280;43896;48.178;11.578;2023-03-13T09:21:53;95175.66;;;13.61;47.45
58092;BME280;43896;48.178;11.578;2023-03-13T09:24:19;95171.25;;;14.10;47.30
58092;BME280;43896;48.178;11.578;2023-03-13T09:26:44;95166.22;;;14.90;46.50
58092;BME280;43896;48.178;11.578;2023-03-13T09:29:09;95161.94;;;14.82;46.01
58092;BME280;43896;48.178;11.578;2023-03-13T09:31:35;95151.16;;;15.78;43.22
58092;BME280;43896;48.178;11.578;2023-03-13T09:34:02;95165.44;;;16.42;42.45
58092;BME280;43896;48.178;11.578;2023-03-13T09:36:28;95129.13;;;16.74;40.41
58092;BME280;43896;48.178;11.578;2023-03-13T09:38:56;95120.38;;;17.05;40.09
58092;BME280;43896;48.178;11.578;2023-03-13T09:41:33;95152.72;;;16.96;39.29
58092;BME280;43896;48.178;11.578;2023-03-13T09:44:17;95156.03;;;16.84;40.57
58092;BME280;43896;48.178;11.578;2023-03-13T09:47:06;95137.94;;;16.68;39.80
58092;BME280;43896;48.178;11.578;2023-03-13T09:49:49;95155.19;;;16.91;39.58
58092;BME280;43896;48.178;11.578;2023-03-13T09:52:27;95133.09;;;17.22;39.96
58092;BME280;43896;48.178;11.578;2023-03-13T09:57:38;95139.66;;;18.07;37.59
58092;BME280;43896;48.178;11.578;2023-03-13T10:00:24;95134.91;;;18.46;36.38
58092;BME280;43896;48.178;11.578;2023-03-13T10:03:06;95125.88;;;18.65;35.61
58092;BME280;43896;48.178;11.578;2023-03-13T10:05:38;95128.69;;;18.52;35.36
58092;BME280;43896;48.178;11.578;2023-03-13T10:08:12;95101.63;;;17.88;36.13
58092;BME280;43896;48.178;11.578;2023-03-13T10:10:46;95124.13;;;18.22;36.51
58092;BME280;43896;48.178;11.578;2023-03-13T10:13:22;95109.81;;;18.05;36.96
58092;BME280;43896;48.178;11.578;2023-03-13T10:16:17;95118.25;;;18.02;37.61
58092;BME280;43896;48.178;11.578;2023-03-13T10:18:47;95100.16;;;18.10;36.79
58092;BME280;43896;48.178;11.578;2023-03-13T10:21:18;95090.78;;;17.83;36.57
58092;BME280;43896;48.178;11.578;2023-03-13T10:23:49;95088.81;;;17.59;37.32
58092;BME280;43896;48.178;11.578;2023-03-13T10:26:22;95123.28;;;17.48;37.47
58092;BME280;43896;48.178;11.578;2023-03-13T10:28:50;95082.44;;;17.42;37.40
58092;BME280;43896;48.178;11.578;2023-03-13T10:31:36;95112.78;;;18.15;36.33
58092;BME280;43896;48.178;11.578;2023-03-13T10:34:19;95099.41;;;18.52;36.36
58092;BME280;43896;48.178;11.578;2023-03-13T10:36:47;95072.97;;;17.90;36.80
58092;BME280;43896;48.178;11.578;2023-03-13T10:39:15;95081.16;;;17.26;37.69
58092;BME280;43896;48.178;11.578;2023-03-13T10:41:41;95081.38;;;17.24;38.62
58092;BME280;43896;48.178;11.578;2023-03-13T10:44:19;95077.19;;;17.35;38.70
58092;BME280;43896;48.178;11.578;2023-03-13T10:46:47;95056.94;;;16.91;39.08
58092;BME280;43896;48.178;11.578;2023-03-13T10:49:17;95085.47;;;17.20;39.73
58092;BME280;43896;48.178;11.578;2023-03-13T10:51:51;95085.94;;;16.92;40.46
58092;BME280;43896;48.178;11.578;2023-03-13T10:54:34;95089.94;;;17.27;39.50
58092;BME280;43896;48.178;11.578;2023-03-13T10:57:27;95080.47;;;17.93;38.87
58092;BME280;43896;48.178;11.578;2023-03-13T10:59:53;95065.31;;;18.12;38.47
58092;BME280;43896;48.178;11.578;2023-03-13T11:02:21;95075.72;;;18.13;38.52
58092;BME280;43896;48.178;11.578;2023-03-13T11:04:48;95057.47;;;18.17;38.10
58092;BME280;43896;48.178;11.578;2023-03-13T11:10:00;95061.41;;;18.45;37.98
58092;BME280;43896;48.178;11.578;2023-03-13T11:12:26;95059.81;;;18.25;38.52
58092;BME280;43896;48.178;11.578;2023-03-13T11:14:59;95053.84;;;18.30;38.35
58092;BME280;43896;48.178;11.578;2023-03-13T11:22:49;95049.44;;;18.66;38.80
58092;BME280;43896;48.178;11.578;2023-03-13T11:33:26;95021.84;;;20.31;36.14
58092;BME280;43896;48.178;11.578;2023-03-13T11:36:10;95020.41;;;20.40;36.61
58092;BME280;43896;48.178;11.578;2023-03-13T11:38:41;95007.28;;;20.67;36.12
58092;BME280;43896;48.178;11.578;2023-03-13T11:41:22;95000.00;;;20.96;36.10
58092;BME280;43896;48.178;11.578;2023-03-13T11:44:52;95017.03;;;20.61;36.60
58092;BME280;43896;48.178;11.578;2023-03-13T11:50:14;95007.84;;;20.69;37.03
58092;BME280;43896;48.178;11.578;2023-03-13T11:55:37;95015.25;;;21.52;35.84
58092;BME280;43896;48.178;11.578;2023-03-13T12:00:47;94988.63;;;21.84;34.76
58092;BME280;43896;48.178;11.578;2023-03-13T12:03:26;94996.22;;;21.70;34.25
58092;BME280;43896;48.178;11.578;2023-03-13T12:05:58;94997.03;;;21.93;34.42
58092;BME280;43896;48.178;11.578;2023-03-13T12:08:28;94984.34;;;21.61;34.45
58092;BME280;43896;48.178;11.578;2023-03-13T12:13:45;94956.22;;;21.59;34.25
58092;BME280;43896;48.178;11.578;2023-03-13T12:16:17;94972.25;;;21.20;34.55
58092;BME280;43896;48.178;11.578;2023-03-13T12:18:44;94976.56;;;21.04;35.38
58092;BME280;43896;48.178;11.578;2023-03-13T12:26:07;94947.88;;;20.31;36.41
58092;BME280;43896;48.178;11.578;2023-03-13T12:32:03;94926.22;;;19.70;37.15
58092;BME280;43896;48.178;11.578;2023-03-13T12:34:50;94957.78;;;20.02;36.61
58092;BME280;43896;48.178;11.578;2023-03-13T12:37:31;94947.56;;;20.45;36.48
58092;BME280;43896;48.178;11.578;2023-03-13T12:40:28;94933.31;;;20.22;36.27
58092;BME280;43896;48.178;11.578;2023-03-13T12:43:15;94948.03;;;19.79;37.20
58092;BME280;43896;48.178;11.578;2023-03-13T12:57:07;94912.13;;;19.86;36.76
58092;BME280;43896;48.178;11.578;2023-03-13T12:59:41;94913.22;;;19.74;38.00
58092;BME280;43896;48.178;11.578;2023-03-13T13:02:20;94908.69;;;20.03;37.82
58092;BME280;43896;48.178;11.578;2023-03-13T13:04:48;94911.53;;;20.13;37.43
58092;BME280;43896;48.178;11.578;2023-03-13T13:07:27;94893.72;;;19.44;38.57
58092;BME280;43896;48.178;11.578;2023-03-13T13:12:36;94885.03;;;19.78;38.38
58092;BME280;43896;48.178;11.578;2023-03-13T13:15:13;94873.59;;;20.11;37.90
58092;BME280;43896;48.178;11.578;2023-03-13T13:20:35;94883.25;;;20.63;37.48
58092;BME280;43896;48.178;11.578;2023-03-13T13:23:24;94883.47;;;20.45;37.49
58092;BME280;43896;48.178;11.578;2023-03-13T13:25:52;94834.91;;;19.80;37.95
58092;BME280;43896;48.178;11.578;2023-03-13T13:30:52;94837.63;;;18.87;39.96
58092;BME280;43896;48.178;11.578;2023-03-13T13:35:45;94845.53;;;20.09;38.41
58092;BME280;43896;48.178;11.578;2023-03-13T13:43:30;94856.69;;;20.95;36.55
58092;BME280;43896;48.178;11.578;2023-03-13T13:48:42;94836.56;;;21.10;36.46
58092;BME280;43896;48.178;11.578;2023-03-13T13:53:42;94833.06;;;21.31;35.80
58092;BME280;43896;48.178;11.578;2023-03-13T14:01:50;94812.75;;;21.30;36.42
58092;BME280;43896;48.178;11.578;2023-03-13T14:04:40;94804.50;;;21.59;36.04
58092;BME280;43896;48.178;11.578;2023-03-13T14:07:11;94792.63;;;21.77;35.60
58092;BME280;43896;48.178;11.578;2023-03-13T14:12:24;94786.00;;;21.85;35.31
58092;BME280;43896;48.178;11.578;2023-03-13T14:15:06;94789.00;;;21.88;34.55
58092;BME280;43896;48.178;11.578;2023-03-13T14:17:40;94758.97;;;21.54;35.82
58092;BME280;43896;48.178;11.578;2023-03-13T14:20:26;94774.25;;;22.23;34.78
58092;BME280;43896;48.178;11.578;2023-03-13T14:22:53;94737.31;;;22.25;33.82
58092;BME280;43896;48.178;11.578;2023-03-13T14:25:20;94734.75;;;22.41;33.54